Time;durP1;ratioP1;P1;durP2;ratioP2;P2;SDS_P1;SDS_P2;PMS_P1;PMS_P2;Temp;Humidity;BMP_temperature;BMP_pressure;BME280_temperature;BME280_humidity;BME280_pressure;Samples;Min_cycle;Max_cycle;Signal;HPM_P1;HPM_P2
2021/07/08 00:00:08;;;;;;;6.78;2.30;;;;;;;19.13;50.85;101370.25;4825839;29;20054;-62
2021/07/08 00:02:36;;;;;;;7.60;1.92;;;;;;;19.31;50.91;101368.00;4825610;29;20046;-63
2021/07/08 00:05:11;;;;;;;3.95;1.83;;;;;;;19.46;50.46;101370.84;4825769;29;20145;-63
2021/07/08 00:07:39;;;;;;;6.35;2.10;;;;;;;19.28;50.96;101361.13;4811873;29;20085;-63
2021/07/08 00:10:19;;;;;;;6.30;1.88;;;;;;;19.18;51.34;101358.84;4825721;29;20379;-64
2021/07/08 00:12:46;;;;;;;;;;;;;;;19.09;51.80;101361.78;4826919;29;20055;-62
2021/07/08 00:15:18;;;;;;;8.90;2.42;;;;;;;18.89;52.41;101367.56;4827207;29;19932;-62
2021/07/08 00:17:47;;;;;;;7.53;1.90;;;;;;;19.22;51.98;101364.53;4811552;29;20046;-64
2021/07/08 00:20:17;;;;;;;5.45;1.83;;;;;;;19.19;51.83;101360.47;4826527;29;20059;-63
2021/07/08 00:22:45;;;;;;;8.88;2.03;;;;;;;19.06;52.08;101368.09;4826833;29;20050;-61
2021/07/08 00:25:16;;;;;;;5.47;2.15;;;;;;;19.21;51.71;101363.72;4827381;29;20066;-63
2021/07/08 00:27:44;;;;;;;8.13;2.10;;;;;;;19.26;51.54;101360.69;4825500;29;20063;-65
2021/07/08 00:30:12;;;;;;;9.05;1.88;;;;;;;18.99;52.43;101358.69;4825567;29;20063;-62
2021/07/08 00:32:42;;;;;;;6.60;2.20;;;;;;;18.87;53.15;101369.88;4825489;29;20054;-63
2021/07/08 00:35:10;;;;;;;7.65;2.00;;;;;;;19.05;52.88;101366.47;4816313;29;20059;-62
2021/07/08 00:37:38;;;;;;;8.65;2.10;;;;;;;19.07;52.75;101366.13;4808745;29;20442;-63
2021/07/08 00:40:08;;;;;;;6.47;1.90;;;;;;;18.76;53.41;101368.75;4808196;29;20058;-62
2021/07/08 00:42:36;;;;;;;5.22;1.80;;;;;;;18.65;54.14;101373.19;4809316;29;20047;-63
2021/07/08 00:45:05;;;;;;;8.88;2.20;;;;;;;18.78;53.78;101377.56;4808843;29;20062;-63
2021/07/08 00:47:33;;;;;;;8.35;2.22;;;;;;;18.82;53.79;101375.72;4807157;29;20059;-62
2021/07/08 00:50:00;;;;;;;4.93;2.08;;;;;;;18.82;54.03;101372.94;4808546;29;20423;-63
2021/07/08 00:52:27;;;;;;;3.63;1.70;;;;;;;18.86;54.11;101374.66;4808200;29;20055;-62
2021/07/08 00:54:54;;;;;;;5.60;2.15;;;;;;;18.55;54.94;101374.47;4807306;29;20078;-62
2021/07/08 00:57:23;;;;;;;6.38;2.10;;;;;;;18.86;54.28;101365.47;4822191;29;20065;-63
2021/07/08 00:59:54;;;;;;;6.85;2.20;;;;;;;18.73;54.39;101363.88;4825761;29;20054;-62
2021/07/08 01:02:23;;;;;;;9.57;2.65;;;;;;;18.73;54.55;101364.69;4826375;29;20061;-63
2021/07/08 01:04:50;;;;;;;5.25;1.90;;;;;;;18.75;54.59;101367.13;4810372;29;20054;-64
2021/07/08 01:07:24;;;;;;;5.30;2.13;;;;;;;18.68;55.07;101373.31;4826581;29;20058;-63
2021/07/08 01:09:52;;;;;;;5.40;1.98;;;;;;;18.52;55.40;101374.38;4825131;29;20059;-63
2021/07/08 01:12:19;;;;;;;6.75;2.03;;;;;;;18.76;54.81;101374.31;4809222;29;20075;-63
2021/07/08 01:14:47;;;;;;;9.32;2.25;;;;;;;18.79;54.89;101370.84;4807821;29;20055;-61
2021/07/08 01:17:14;;;;;;;10.57;2.70;;;;;;;18.74;55.08;101373.88;4808146;29;20066;-66
2021/07/08 01:19:42;;;;;;;6.43;2.20;;;;;;;18.68;55.10;101366.91;4808136;29;20078;-63
2021/07/08 01:22:10;;;;;;;7.18;2.08;;;;;;;18.45;56.08;101374.16;4807911;29;20061;-63
2021/07/08 01:24:38;;;;;;;6.35;2.00;;;;;;;18.41;56.16;101367.66;4806995;29;20058;-66
2021/07/08 01:27:06;;;;;;;4.85;2.13;;;;;;;18.64;55.50;101372.38;4808210;29;20297;-63
2021/07/08 01:29:33;;;;;;;5.30;1.80;;;;;;;18.37;56.08;101369.50;4821792;29;20538;-63
2021/07/08 01:32:01;;;;;;;8.10;2.25;;;;;;;18.22;56.61;101376.56;4807730;29;20051;-63
2021/07/08 01:34:29;;;;;;;4.15;2.08;;;;;;;17.96;57.87;101370.53;4808008;29;20059;-65
2021/07/08 01:36:56;;;;;;;6.07;2.22;;;;;;;18.11;57.51;101377.38;4822653;29;20077;-62
2021/07/08 01:39:23;;;;;;;6.93;2.10;;;;;;;18.01;57.87;101381.44;4824571;29;20054;-63
2021/07/08 01:41:51;;;;;;;5.80;2.35;;;;;;;18.04;57.93;101385.53;4826288;29;20065;-62
2021/07/08 01:44:18;;;;;;;6.07;2.33;;;;;;;18.12;57.91;101387.38;4825490;29;20495;-63
2021/07/08 01:46:45;;;;;;;4.68;2.10;;;;;;;18.21;57.39;101402.03;4799204;29;20062;-62
2021/07/08 01:49:13;;;;;;;5.80;2.30;;;;;;;18.28;57.40;101397.50;4806552;29;20074;-62
2021/07/08 01:51:41;;;;;;;4.50;2.25;;;;;;;18.10;57.99;101389.72;4808562;29;20538;-63
2021/07/08 01:54:08;;;;;;;8.75;2.30;;;;;;;18.02;58.30;101393.41;4807110;29;20080;-63
2021/07/08 01:56:37;;;;;;;8.25;2.45;;;;;;;18.08;58.31;101398.41;4814664;29;20061;-63
2021/07/08 01:59:05;;;;;;;6.75;2.45;;;;;;;18.01;58.54;101389.81;4825381;29;20097;-63
2021/07/08 02:01:32;;;;;;;9.43;2.92;;;;;;;18.04;58.51;101397.50;4807864;29;20673;-63
2021/07/08 02:04:00;;;;;;;4.47;2.30;;;;;;;17.91;59.04;101390.25;4806652;29;20042;-62
2021/07/08 02:06:31;;;;;;;9.93;2.70;;;;;;;18.09;58.70;101399.22;4805507;29;20058;-64
2021/07/08 02:09:02;;;;;;;5.60;2.30;;;;;;;18.37;57.94;101406.56;4806372;29;20065;-63
2021/07/08 02:11:30;;;;;;;4.80;2.35;;;;;;;18.37;57.95;101406.56;4807600;29;20054;-62
2021/07/08 02:13:57;;;;;;;8.18;2.30;;;;;;;18.18;58.23;101399.94;4815879;29;20061;-63
2021/07/08 02:16:25;;;;;;;6.65;2.38;;;;;;;17.94;59.11;101401.53;4825499;29;20057;-64
2021/07/08 02:18:52;;;;;;;10.50;2.55;;;;;;;18.04;58.84;101397.50;4824210;29;20057;-63
2021/07/08 02:21:19;;;;;;;5.70;2.10;;;;;;;18.01;59.26;101405.72;4824598;29;20486;-63
2021/07/08 02:23:47;;;;;;;7.03;2.30;;;;;;;17.90;59.67;101408.16;4824999;29;20065;-63
2021/07/08 02:26:14;;;;;;;5.82;2.65;;;;;;;17.87;59.78;101408.81;4824428;29;20395;-63
2021/07/08 02:28:42;;;;;;;4.45;2.35;;;;;;;17.76;60.39;101407.66;4825655;29;20518;-63
2021/07/08 02:31:10;;;;;;;7.25;2.35;;;;;;;17.88;59.98;101405.72;4825483;29;20054;-63
2021/07/08 02:33:38;;;;;;;7.65;2.55;;;;;;;17.88;60.15;101407.69;4825338;29;20046;-62
2021/07/08 02:36:06;;;;;;;9.55;2.55;;;;;;;17.91;59.91;101393.88;4825026;29;20530;-62
2021/07/08 02:38:34;;;;;;;10.30;2.38;;;;;;;17.73;60.58;101400.78;4825267;29;20050;-64
2021/07/08 02:41:03;;;;;;;9.95;3.17;;;;;;;17.92;60.16;101400.25;4825749;29;20055;-63
2021/07/08 02:43:30;;;;;;;6.78;2.63;;;;;;;17.62;61.12;101396.84;4827136;29;20145;-63
2021/07/08 02:45:58;;;;;;;7.15;2.55;;;;;;;17.69;61.25;101399.06;4828486;29;20062;-63
2021/07/08 02:48:25;;;;;;;12.07;2.88;;;;;;;17.77;61.22;101396.16;4829848;29;20070;-63
2021/07/08 02:50:54;;;;;;;8.60;2.67;;;;;;;17.67;61.54;101393.00;4829741;29;20523;-62
2021/07/08 02:53:22;;;;;;;6.43;2.75;;;;;;;17.50;62.09;101396.81;4828716;29;20487;-64
2021/07/08 02:55:50;;;;;;;6.95;2.63;;;;;;;17.56;62.21;101400.97;4828340;29;20050;-62
2021/07/08 02:58:18;;;;;;;7.90;2.65;;;;;;;17.69;61.94;101399.06;4827612;29;20061;-62
2021/07/08 03:00:46;;;;;;;10.30;3.00;;;;;;;17.40;62.59;101396.38;4827881;29;20077;-63
2021/07/08 03:03:15;;;;;;;7.68;3.17;;;;;;;17.53;62.22;101393.31;4826955;29;20581;-63
2021/07/08 03:05:43;;;;;;;7.03;2.88;;;;;;;17.52;62.33;101393.66;4827098;29;20539;-63
2021/07/08 03:08:10;;;;;;;8.93;2.80;;;;;;;17.49;62.28;101392.38;4827115;29;20054;-62
2021/07/08 03:10:38;;;;;;;5.38;2.75;;;;;;;17.45;62.71;101404.53;4826355;29;20070;-63
2021/07/08 03:13:05;;;;;;;12.68;3.10;;;;;;;17.48;62.56;101399.09;4828355;29;20054;-67
2021/07/08 03:15:33;;;;;;;6.93;3.15;;;;;;;17.62;62.07;101404.38;4827754;29;20063;-62
2021/07/08 03:18:01;;;;;;;6.45;2.58;;;;;;;17.73;61.53;101413.94;4828483;29;20054;-63
2021/07/08 03:20:34;;;;;;;6.45;3.08;;;;;;;17.45;62.47;101410.09;4805578;29;20055;-61
2021/07/08 03:23:03;;;;;;;6.85;2.60;;;;;;;17.23;63.35;101418.78;4810203;29;20086;-62
2021/07/08 03:25:31;;;;;;;8.50;2.70;;;;;;;17.12;63.88;101415.59;4793914;29;20063;-63
2021/07/08 03:28:00;;;;;;;6.53;3.00;;;;;;;17.05;64.25;101411.75;4809822;29;20131;-63
2021/07/08 03:30:30;;;;;;;8.25;3.00;;;;;;;17.10;63.93;101411.56;4808499;29;20069;-62
2021/07/08 03:32:59;;;;;;;7.05;2.53;;;;;;;16.82;64.94;101420.44;4809850;29;20089;-63
2021/07/08 03:35:30;;;;;;;6.47;2.97;;;;;;;16.86;64.92;101420.56;4808700;29;20066;-62
2021/07/08 03:37:58;;;;;;;;;;;;;;;16.95;64.89;101420.50;4809530;29;20083;-62
2021/07/08 03:40:26;;;;;;;11.02;2.90;;;;;;;16.98;64.85;101420.63;4809247;29;19925;-62
2021/07/08 03:42:55;;;;;;;8.13;2.78;;;;;;;17.12;64.33;101425.94;4819610;29;20058;-62
2021/07/08 03:45:23;;;;;;;4.97;2.70;;;;;;;17.23;63.97;101429.94;4825902;29;20058;-63
2021/07/08 03:47:52;;;;;;;8.45;2.90;;;;;;;17.15;64.06;101431.66;4811379;29;20069;-63
2021/07/08 03:50:20;;;;;;;5.50;2.70;;;;;;;17.18;63.98;101422.63;4810942;29;20054;-62
2021/07/08 03:52:47;;;;;;;8.73;2.55;;;;;;;17.27;63.77;101431.72;4828191;29;20089;-64
2021/07/08 03:55:20;;;;;;;6.78;2.50;;;;;;;17.20;64.04;101430.63;4827553;29;20528;-63
2021/07/08 03:57:54;;;;;;;9.90;3.22;;;;;;;17.14;64.16;101435.56;4826416;29;20065;-63
2021/07/08 04:00:28;;;;;;;6.20;2.63;;;;;;;17.09;64.20;101438.56;4827612;29;20085;-63
2021/07/08 04:02:58;;;;;;;7.00;2.63;;;;;;;16.98;64.73;101440.13;4826530;29;20698;-62
2021/07/08 04:05:25;;;;;;;11.50;2.85;;;;;;;17.03;64.91;101439.94;4827214;29;20054;-63
2021/07/08 04:07:55;;;;;;;5.13;2.80;;;;;;;16.94;65.25;101450.31;4827509;29;20058;-62
2021/07/08 04:10:22;;;;;;;8.15;3.13;;;;;;;16.72;65.88;101451.44;4826794;29;20487;-63
2021/07/08 04:12:50;;;;;;;8.35;3.10;;;;;;;16.77;65.93;101458.78;4827924;29;20050;-63
2021/07/08 04:15:19;;;;;;;6.43;2.53;;;;;;;16.85;66.00;101467.06;4825983;29;20066;-63
2021/07/08 04:17:46;;;;;;;12.38;3.40;;;;;;;16.93;65.73;101459.00;4826945;29;20062;-64
2021/07/08 04:20:16;;;;;;;8.13;2.92;;;;;;;17.04;65.37;101463.81;4825835;29;20061;-63
2021/07/08 04:22:44;;;;;;;5.55;3.20;;;;;;;17.08;64.97;101463.97;4825533;29;20065;-63
2021/07/08 04:25:13;;;;;;;7.03;3.10;;;;;;;17.03;65.58;101464.16;4826803;29;20066;-63
2021/07/08 04:27:41;;;;;;;8.52;3.13;;;;;;;16.93;65.83;101459.00;4812262;29;20062;-63
2021/07/08 04:30:10;;;;;;;9.13;3.10;;;;;;;17.10;65.40;101467.22;4809097;29;20055;-63
2021/07/08 04:32:38;;;;;;;6.97;3.10;;;;;;;17.12;65.03;101464.94;4808477;29;20055;-62
2021/07/08 04:35:06;;;;;;;11.85;3.53;;;;;;;16.88;66.01;101463.59;4808268;29;20444;-63
2021/07/08 04:37:41;;;;;;;13.18;3.08;;;;;;;16.84;66.46;101459.88;4808421;29;20817;-63
2021/07/08 04:40:16;;;;;;;8.40;2.83;;;;;;;16.92;66.24;101451.78;4807492;29;20062;-64
2021/07/08 04:42:44;;;;;;;8.68;2.90;;;;;;;17.03;65.72;101453.88;4808703;29;20062;-63
2021/07/08 04:45:12;;;;;;;5.75;2.90;;;;;;;16.96;66.16;101455.53;4808031;29;20061;-62
2021/07/08 04:47:41;;;;;;;7.32;3.20;;;;;;;16.77;66.75;101459.59;4819701;29;20054;-63
2021/07/08 04:50:15;;;;;;;8.85;3.13;;;;;;;16.66;67.20;101454.75;4827414;29;20162;-63
2021/07/08 04:52:43;;;;;;;8.95;3.28;;;;;;;16.56;67.76;101461.50;4825560;29;20410;-63
2021/07/08 04:55:12;;;;;;;5.90;2.72;;;;;;;16.89;67.15;101459.66;4826715;29;20530;-64
2021/07/08 04:57:40;;;;;;;7.93;3.20;;;;;;;17.06;66.62;101469.88;4826241;29;20062;-63
2021/07/08 05:00:10;;;;;;;6.85;3.30;;;;;;;17.07;66.22;101463.13;4826317;29;20062;-68
2021/07/08 05:02:38;;;;;;;8.65;3.47;;;;;;;16.83;67.11;101472.16;4814207;29;20051;-63
2021/07/08 05:05:07;;;;;;;6.90;3.05;;;;;;;17.06;66.53;101474.63;4807859;29;20059;-62
2021/07/08 05:07:35;;;;;;;6.65;3.03;;;;;;;17.01;66.58;101478.44;4807827;29;20054;-64
2021/07/08 05:10:05;;;;;;;8.23;3.20;;;;;;;16.97;66.57;101473.84;4807828;29;20447;-63
2021/07/08 05:12:32;;;;;;;10.65;3.00;;;;;;;16.94;66.96;101475.38;4807858;29;20055;-63
2021/07/08 05:15:05;;;;;;;9.70;3.45;;;;;;;17.07;66.53;101479.84;4807926;29;20058;-62
2021/07/08 05:17:33;;;;;;;6.50;3.10;;;;;;;17.19;66.59;101488.25;4807747;29;20138;-62
2021/07/08 05:20:00;;;;;;;8.27;3.05;;;;;;;17.30;66.27;101485.88;4807455;29;20067;-63
2021/07/08 05:22:31;;;;;;;6.97;3.40;;;;;;;17.54;65.30;101486.06;4816931;29;20081;-63
2021/07/08 05:24:59;;;;;;;14.52;3.47;;;;;;;17.79;64.70;101485.81;4825921;29;20415;-62
2021/07/08 05:27:26;;;;;;;7.72;3.30;;;;;;;17.65;64.87;101484.47;4821756;29;20054;-63
2021/07/08 05:29:56;;;;;;;8.75;3.50;;;;;;;18.02;64.07;101489.03;4824491;29;20058;-62
2021/07/08 05:32:23;;;;;;;8.80;3.20;;;;;;;18.06;63.70;101489.16;4824075;29;20383;-63
2021/07/08 05:34:51;;;;;;;9.13;3.20;;;;;;;18.10;64.02;101485.31;4824601;29;20046;-63
2021/07/08 05:37:18;;;;;;;9.18;3.33;;;;;;;18.20;63.17;101496.00;4824522;29;20066;-64
2021/07/08 05:39:45;;;;;;;7.57;3.80;;;;;;;18.05;63.62;101493.06;4826137;29;20065;-63
2021/07/08 05:42:12;;;;;;;12.77;3.50;;;;;;;18.04;64.29;101508.19;4824188;29;20062;-64
2021/07/08 05:44:40;;;;;;;7.70;3.53;;;;;;;18.18;63.65;101498.34;4825284;29;20054;-63
2021/07/08 05:47:07;;;;;;;12.13;3.20;;;;;;;18.60;62.97;101499.03;4809232;29;20066;-62
2021/07/08 05:49:55;;;;;;;6.63;3.00;;;;;;;18.67;62.23;101504.84;4824624;29;20065;-63
2021/07/08 05:52:24;;;;;;;7.95;3.20;;;;;;;18.77;62.20;101494.03;4820021;29;20058;-64
2021/07/08 05:54:51;;;;;;;9.18;3.63;;;;;;;19.14;61.14;101493.97;4817190;29;20054;-62
2021/07/08 05:57:18;;;;;;;8.60;3.20;;;;;;;18.87;61.82;101495.50;4825352;29;20061;-63
2021/07/08 05:59:46;;;;;;;11.57;3.33;;;;;;;19.05;61.59;101499.69;4820596;29;20051;-63
2021/07/08 06:02:13;;;;;;;8.43;2.90;;;;;;;19.11;61.88;101494.69;4811481;29;20061;-62
2021/07/08 06:04:41;;;;;;;10.35;3.20;;;;;;;19.20;61.81;101498.94;4825224;29;20050;-63
2021/07/08 06:07:08;;;;;;;8.10;3.40;;;;;;;19.25;61.24;101497.91;4818672;29;20081;-63
2021/07/08 06:09:36;;;;;;;9.32;2.92;;;;;;;19.50;60.19;101496.69;4820513;29;20126;-63
2021/07/08 06:12:03;;;;;;;8.50;2.92;;;;;;;19.34;60.75;101506.97;4824582;29;20074;-63
2021/07/08 06:14:31;;;;;;;6.85;3.25;;;;;;;19.57;60.38;101508.06;4824198;29;20054;-63
2021/07/08 06:16:58;;;;;;;8.18;3.20;;;;;;;19.48;59.55;101508.22;4815392;29;20411;-62
2021/07/08 06:19:26;;;;;;;8.70;3.15;;;;;;;19.44;59.78;101515.69;4823050;29;20542;-62
2021/07/08 06:21:53;;;;;;;10.65;3.20;;;;;;;19.07;61.57;101522.50;4825428;29;20054;-63
2021/07/08 06:24:20;;;;;;;9.93;3.40;;;;;;;19.05;61.64;101517.25;4822615;29;20058;-63
2021/07/08 06:26:48;;;;;;;12.43;3.42;;;;;;;18.90;62.18;101525.50;4824793;29;20126;-62
2021/07/08 06:29:15;;;;;;;13.88;3.35;;;;;;;18.87;63.46;101532.63;4825634;29;20054;-62
2021/07/08 06:31:42;;;;;;;8.88;3.20;;;;;;;18.74;63.19;101532.97;4818528;29;20051;-64
2021/07/08 06:34:10;;;;;;;11.80;3.33;;;;;;;18.41;64.49;101540.63;4822181;29;20062;-62
2021/07/08 06:36:37;;;;;;;11.57;3.28;;;;;;;18.40;64.68;101534.22;4808467;29;20476;-63
2021/07/08 06:39:05;;;;;;;11.32;3.28;;;;;;;18.47;64.78;101542.00;4815964;29;20054;-61
2021/07/08 06:41:33;;;;;;;11.25;3.10;;;;;;;18.62;65.55;101546.94;4824565;29;20065;-63
2021/07/08 06:44:00;;;;;;;8.15;3.50;;;;;;;18.66;65.69;101545.06;4822730;29;20069;-62
2021/07/08 06:46:29;;;;;;;11.02;3.92;;;;;;;22.53;63.51;101530.78;4821817;29;20549;-43
2021/07/08 06:48:58;;;;;;;9.02;2.70;;;;;;;23.11;55.53;101539.81;4822728;29;20062;-44
2021/07/08 06:51:26;;;;;;;13.07;2.92;;;;;;;23.41;57.44;101530.25;4822341;29;20411;-45
2021/07/08 06:53:55;;;;;;;9.32;2.60;;;;;;;23.69;55.75;101540.25;4819887;29;20069;-49
2021/07/08 06:56:23;;;;;;;13.25;2.55;;;;;;;23.76;53.02;101544.00;4821755;29;20058;-50
2021/07/08 06:58:50;;;;;;;11.07;2.20;;;;;;;23.69;49.84;101545.91;4821671;29;20050;-60
2021/07/08 07:01:18;;;;;;;6.80;2.60;;;;;;;23.62;49.48;101552.25;4821463;29;20054;-45
2021/07/08 07:03:45;;;;;;;10.90;2.65;;;;;;;23.68;49.98;101555.50;4821353;29;20046;-46
2021/07/08 07:06:12;;;;;;;7.75;2.17;;;;;;;22.98;49.98;101553.25;4822732;29;20061;-50
2021/07/08 07:08:42;;;;;;;8.93;2.45;;;;;;;22.65;50.55;101560.72;4822300;29;20058;-47
2021/07/08 07:11:10;;;;;;;6.88;2.60;;;;;;;22.65;50.53;101557.91;4822436;29;20058;-49
2021/07/08 07:13:37;;;;;;;6.20;2.42;;;;;;;22.51;50.55;101555.63;4821075;29;20058;-47
2021/07/08 07:16:05;;;;;;;6.90;2.83;;;;;;;22.32;51.40;101548.06;4835049;29;20538;-49
2021/07/08 07:18:37;;;;;;;8.60;2.47;;;;;;;22.33;51.40;101546.88;4821132;29;20055;-47
2021/07/08 07:21:08;;;;;;;;;;;;;;;22.64;50.33;101562.72;4822784;29;20055;-45
2021/07/08 07:23:36;;;;;;;7.82;2.85;;;;;;;22.93;49.61;101566.81;4822953;29;19925;-48
2021/07/08 07:26:03;;;;;;;10.00;3.65;;;;;;;22.99;49.72;101566.13;4821505;29;20055;-49
2021/07/08 07:28:30;;;;;;;6.72;2.97;;;;;;;22.92;49.78;101560.41;4820092;29;20062;-46
2021/07/08 07:30:58;;;;;;;8.60;3.10;;;;;;;23.00;49.54;101562.13;4823988;29;20058;-45
2021/07/08 07:33:25;;;;;;;10.00;2.83;;;;;;;23.06;49.04;101566.25;4825430;29;20085;-49
2021/07/08 07:35:52;;;;;;;6.00;2.63;;;;;;;23.18;49.24;101560.41;4826208;29;20927;-47
2021/07/08 07:38:21;;;;;;;6.47;2.72;;;;;;;23.21;48.72;101565.28;4826159;29;20046;-46
2021/07/08 07:40:48;;;;;;;8.82;2.97;;;;;;;23.06;49.75;101569.06;4826515;29;20054;-51
2021/07/08 07:43:15;;;;;;;11.77;2.85;;;;;;;23.02;49.67;101571.00;4824266;29;20080;-47
2021/07/08 07:45:43;;;;;;;11.38;3.40;;;;;;;22.91;50.09;101577.63;4822782;29;20054;-44
2021/07/08 07:48:10;;;;;;;8.15;3.30;;;;;;;22.92;50.25;101576.44;4825106;29;20069;-42
2021/07/08 07:50:38;;;;;;;9.60;2.78;;;;;;;23.04;50.07;101571.44;4824903;29;20050;-45
2021/07/08 07:53:05;;;;;;;8.43;2.90;;;;;;;22.73;50.69;101574.53;4825240;29;20066;-48
2021/07/08 07:55:32;;;;;;;6.70;3.25;;;;;;;23.01;49.85;101580.59;4825944;29;20059;-45
2021/07/08 07:58:01;;;;;;;7.55;3.00;;;;;;;22.99;50.14;101583.00;4821968;29;20062;-60
2021/07/08 08:00:29;;;;;;;8.00;3.20;;;;;;;22.89;50.31;101585.63;4823391;29;20061;-47
2021/07/08 08:02:57;;;;;;;9.85;3.13;;;;;;;22.92;50.33;101580.06;4809725;29;20066;-47
2021/07/08 08:11:03;;;;;;;6.07;2.78;;;;;;;22.52;50.59;101584.53;4775969;30;20059;-48
2021/07/08 08:13:32;;;;;;;5.85;2.47;;;;;;;22.57;50.75;101576.63;4816011;29;20070;-48
2021/07/08 08:15:59;;;;;;;8.48;2.10;;;;;;;22.84;49.68;101574.72;4809770;29;20054;-48
2021/07/08 08:18:27;;;;;;;6.78;2.33;;;;;;;22.89;49.52;101571.56;4825243;29;20524;-48
2021/07/08 08:20:55;;;;;;;8.30;2.72;;;;;;;22.93;49.32;101570.44;4821402;29;20058;-49
2021/07/08 08:23:22;;;;;;;12.75;3.97;;;;;;;23.15;48.75;101566.78;4824865;29;20058;-46
2021/07/08 08:25:49;;;;;;;7.45;2.70;;;;;;;23.42;47.92;101570.44;4823873;29;20059;-47
2021/07/08 08:28:17;;;;;;;10.90;2.45;;;;;;;23.16;48.47;101564.78;4822777;29;20054;-51
2021/07/08 08:30:44;;;;;;;7.47;2.65;;;;;;;23.28;48.27;101567.41;4807926;29;20050;-46
2021/07/08 08:33:12;;;;;;;7.28;2.50;;;;;;;23.52;47.47;101558.50;4824710;29;20629;-46
2021/07/08 08:35:40;;;;;;;9.80;2.80;;;;;;;23.42;48.40;101567.63;4824037;29;20054;-45
2021/07/08 08:38:07;;;;;;;8.27;2.60;;;;;;;23.56;48.58;101567.00;4823055;29;20091;-46
2021/07/08 08:40:35;;;;;;;12.52;2.40;;;;;;;23.73;47.90;101564.44;4822281;29;20062;-46
2021/07/08 08:43:02;;;;;;;5.72;2.55;;;;;;;23.81;47.63;101559.72;4823864;29;20399;-47
2021/07/08 08:45:30;;;;;;;5.53;2.38;;;;;;;23.61;48.18;101553.41;4823002;29;20059;-47
2021/07/08 08:48:03;;;;;;;7.25;2.22;;;;;;;23.58;48.25;101553.38;4823710;29;20058;-49
2021/07/08 08:50:41;;;;;;;7.30;2.45;;;;;;;23.38;47.47;101552.69;4824227;29;20077;-48
2021/07/08 08:53:10;;;;;;;7.70;2.65;;;;;;;23.35;48.59;101554.28;4823620;29;20050;-48
2021/07/08 08:55:38;;;;;;;7.65;2.63;;;;;;;23.24;48.80;101570.13;4824217;29;20046;-47
2021/07/08 08:58:07;;;;;;;7.80;2.45;;;;;;;22.81;49.66;101569.81;4824988;29;20434;-47
2021/07/08 09:00:37;;;;;;;8.60;2.80;;;;;;;23.15;49.12;101558.34;4823202;29;20065;-48
2021/07/08 09:03:06;;;;;;;13.75;2.40;;;;;;;22.94;49.58;101572.06;4823332;29;20062;-47
2021/07/08 09:05:34;;;;;;;4.68;2.20;;;;;;;23.26;48.53;101569.75;4822077;29;20545;-46
2021/07/08 09:08:28;;;;;;;6.80;2.70;;;;;;;23.65;47.78;101559.09;4823969;29;20078;-48
2021/07/08 09:11:01;;;;;;;6.93;2.40;;;;;;;23.52;47.84;101569.75;4821197;29;21473;-48
2021/07/08 09:13:46;;;;;;;5.78;2.70;;;;;;;23.86;46.51;101563.00;4823697;29;20066;-46
2021/07/08 09:16:17;;;;;;;6.57;2.70;;;;;;;24.29;44.20;101548.25;4824992;29;20058;-49
2021/07/08 09:19:01;;;;;;;6.40;2.50;;;;;;;23.99;44.43;101549.50;4822804;29;20081;-48
2021/07/08 09:21:29;;;;;;;5.53;2.47;;;;;;;24.20;45.27;101558.22;4823039;29;20058;-48
2021/07/08 09:24:16;;;;;;;8.77;2.58;;;;;;;24.27;44.11;101552.63;4823524;29;20459;-48
2021/07/08 09:27:08;;;;;;;6.07;2.63;;;;;;;24.12;44.59;101557.31;4823462;29;20534;-48
2021/07/08 09:29:45;;;;;;;5.63;2.67;;;;;;;23.58;46.20;101559.81;4823147;29;20502;-50
2021/07/08 09:32:21;;;;;;;6.68;2.50;;;;;;;23.50;46.68;101562.91;4824134;29;20066;-50
2021/07/08 09:34:54;;;;;;;10.43;3.00;;;;;;;23.78;45.97;101552.84;4827048;29;20426;-51
2021/07/08 09:37:23;;;;;;;7.20;3.15;;;;;;;23.51;46.58;101542.84;4823363;29;20055;-47
2021/07/08 09:40:08;;;;;;;9.70;2.85;;;;;;;23.19;47.68;101553.59;4821978;29;20527;-47
2021/07/08 09:42:46;;;;;;;6.82;2.72;;;;;;;23.40;47.19;101548.31;4824579;29;20054;-50
2021/07/08 09:45:15;;;;;;;8.20;3.30;;;;;;;23.57;46.73;101546.13;4821551;29;20071;-49
2021/07/08 09:47:46;;;;;;;6.93;3.00;;;;;;;23.40;47.04;101561.56;4822170;29;20050;-48
2021/07/08 09:50:37;;;;;;;9.18;3.20;;;;;;;23.11;48.20;101557.50;4822661;29;20069;-49
2021/07/08 09:53:07;;;;;;;8.50;3.15;;;;;;;23.30;47.92;101546.16;4823622;29;20061;-45
2021/07/08 09:56:02;;;;;;;6.40;3.25;;;;;;;23.70;46.88;101555.94;4822931;29;20080;-48
2021/07/08 09:58:30;;;;;;;7.15;3.03;;;;;;;23.36;47.44;101549.47;4822579;29;20066;-46
2021/07/08 10:01:11;;;;;;;9.82;3.13;;;;;;;23.63;46.72;101545.41;4823622;29;20054;-42
2021/07/08 10:03:40;;;;;;;8.52;3.45;;;;;;;23.64;46.80;101546.22;4823904;29;20054;-43
2021/07/08 10:06:10;;;;;;;7.75;2.92;;;;;;;23.38;47.22;101549.88;4821783;29;20046;-43
2021/07/08 10:08:38;;;;;;;6.50;2.90;;;;;;;23.64;46.26;101552.66;4823681;29;20068;-42
2021/07/08 10:11:05;;;;;;;7.65;2.97;;;;;;;23.76;46.03;101552.44;4822709;29;20158;-42
2021/07/08 10:13:33;;;;;;;6.40;3.20;;;;;;;23.25;46.16;101551.28;4823182;29;20507;-41
2021/07/08 10:16:01;;;;;;;7.03;3.10;;;;;;;23.51;46.52;101547.66;4822322;29;20129;-43
2021/07/08 10:18:31;;;;;;;5.10;2.63;;;;;;;23.38;46.16;101552.69;4822098;29;20050;-42
2021/07/08 10:20:59;;;;;;;8.00;3.10;;;;;;;23.47;46.22;101546.81;4824079;29;20065;-50
2021/07/08 10:23:27;;;;;;;9.38;2.80;;;;;;;23.78;45.70;101554.84;4823082;29;20055;-45
2021/07/08 10:25:54;;;;;;;7.75;3.00;;;;;;;23.94;45.32;101549.81;4821962;29;20046;-45
2021/07/08 10:28:46;;;;;;;5.75;2.70;;;;;;;23.91;43.79;101554.22;4822423;29;20058;-42
2021/07/08 10:31:16;;;;;;;4.38;2.30;;;;;;;23.41;45.67;101551.94;4822487;29;20073;-43
2021/07/08 10:34:06;;;;;;;6.05;2.33;;;;;;;23.38;44.87;101552.69;4821315;29;20410;-43
2021/07/08 10:36:34;;;;;;;9.65;2.90;;;;;;;23.46;45.86;101554.41;4820945;29;20442;-43
2021/07/08 10:39:07;;;;;;;6.70;2.83;;;;;;;23.56;45.60;101559.38;4828320;29;20069;-43
2021/07/08 10:41:35;;;;;;;7.22;2.97;;;;;;;23.59;45.26;101561.41;4821322;29;20063;-43
2021/07/08 10:44:03;;;;;;;6.40;3.10;;;;;;;23.78;45.25;101564.09;4822756;29;20073;-44
2021/07/08 10:46:50;;;;;;;7.20;3.10;;;;;;;23.65;45.41;101567.53;4821182;29;20054;-42
2021/07/08 10:49:17;;;;;;;7.20;3.28;;;;;;;23.84;45.09;101565.38;4822828;29;20054;-42
2021/07/08 10:51:44;;;;;;;11.00;3.10;;;;;;;23.76;45.08;101566.50;4821998;29;20060;-42
2021/07/08 10:54:30;;;;;;;11.02;3.40;;;;;;;23.82;45.26;101561.31;4822170;29;20060;-42
2021/07/08 10:57:00;;;;;;;8.55;2.90;;;;;;;23.94;44.98;101564.69;4822386;29;20512;-43
2021/07/08 10:59:42;;;;;;;6.30;3.05;;;;;;;23.60;45.59;101567.88;4820584;29;20058;-41
2021/07/08 11:02:46;;;;;;;5.68;2.92;;;;;;;23.88;45.43;101571.88;4823252;29;20062;-46
2021/07/08 11:05:14;;;;;;;5.50;2.90;;;;;;;24.04;44.82;101569.66;4823956;29;20050;-43
2021/07/08 11:07:47;;;;;;;8.00;3.25;;;;;;;24.14;44.66;101577.47;4825385;29;20531;-41
2021/07/08 11:10:32;;;;;;;5.32;2.60;;;;;;;23.95;44.88;101574.78;4824294;29;20051;-42
2021/07/08 11:13:25;;;;;;;6.55;2.97;;;;;;;23.83;45.34;101579.84;4825431;29;20058;-44
2021/07/08 11:15:53;;;;;;;6.72;3.35;;;;;;;24.02;45.09;101577.72;4826043;29;20431;-43
2021/07/08 11:18:31;;;;;;;6.10;3.10;;;;;;;23.77;45.64;101576.53;4824700;29;20046;-42
2021/07/08 11:20:59;;;;;;;7.13;3.00;;;;;;;23.96;44.90;101578.38;4823984;29;20046;-42
2021/07/08 11:23:41;;;;;;;7.80;3.30;;;;;;;23.95;45.10;101579.59;4824695;29;20570;-43
2021/07/08 11:26:09;;;;;;;7.32;3.35;;;;;;;23.94;44.99;101575.97;4823432;29;20066;-41
2021/07/08 11:28:39;;;;;;;7.82;3.20;;;;;;;24.03;44.80;101572.88;4824959;29;20065;-43
2021/07/08 11:31:07;;;;;;;;;;;;;;;24.06;44.79;101569.31;4825673;29;20075;-43
2021/07/08 11:33:38;;;;;;;7.55;3.35;;;;;;;23.79;45.25;101570.53;4825783;29;19925;-43
2021/07/08 11:36:13;;;;;;;5.53;2.90;;;;;;;23.86;45.18;101571.44;4824690;29;20053;-43
2021/07/08 11:38:45;;;;;;;6.93;3.22;;;;;;;24.15;44.32;101567.81;4824448;29;20058;-43
2021/07/08 11:41:14;;;;;;;7.70;3.55;;;;;;;24.18;44.04;101561.41;4825276;29;20061;-45